.
WxDataArchive / Data Records for 2008-09-23
2008-09-22 September 2008 2008-09-24

Data Records for Tuesday, 23 September 2008

Time	Temp	Chill	HIndex	Humid	Dewpt	 Wind 	HiWind	WindDir	Rain 	Barom 
-----	----	-----	------	-----	-----	------	------	-------	-----	----- 
00:00	57.5	57.5	57.5	87	53.7	0	0	---	0.00	30.337 
00:05	57.3	57.3	57.3	87	53.5	0	1	90	0.00	30.337 
00:10	57.2	57.2	57.2	88	53.7	0	1	90	0.00	30.337 
00:15	57.0	57.0	57.0	88	53.5	0	0	---	0.00	30.338 
00:20	56.7	56.7	56.7	88	53.2	0	1	90	0.00	30.337 
00:25	56.7	56.7	56.7	88	53.2	0	1	90	0.00	30.335 
00:30	56.6	56.6	56.6	89	53.4	0	1	90	0.00	30.335 
00:35	56.6	56.6	56.6	89	53.4	0	1	90	0.00	30.336 
00:40	56.6	56.6	56.6	89	53.4	0	1	90	0.00	30.335 
00:45	56.5	56.5	56.5	89	53.3	0	1	90	0.00	30.333 
00:50	56.5	56.5	56.5	89	53.3	0	1	90	0.00	30.333 
00:55	56.3	56.3	56.3	89	53.1	0	1	90	0.00	30.331 
01:00	56.2	56.2	56.2	90	53.3	0	1	90	0.00	30.333 
01:05	56.0	56.0	56.0	90	53.1	0	0	---	0.00	30.332 
01:10	56.0	56.0	56.0	90	53.1	0	1	90	0.00	30.330 
01:15	55.9	55.9	55.9	90	53.0	0	2	90	0.00	30.329 
01:20	55.9	55.9	55.9	91	53.3	0	1	90	0.00	30.329 
01:25	55.9	55.9	55.9	91	53.3	0	2	90	0.00	30.330 
01:30	55.7	55.7	55.7	91	53.1	0	2	90	0.00	30.330 
01:35	55.7	55.7	55.7	91	53.1	0	1	90	0.00	30.330 
01:40	55.6	55.6	55.6	91	53.0	0	1	90	0.00	30.328 
01:45	55.6	55.6	55.6	92	53.3	0	1	90	0.00	30.327 
01:50	55.6	55.6	55.6	92	53.3	0	2	90	0.00	30.326 
01:55	55.4	55.4	55.4	92	53.1	0	2	90	0.00	30.326 
02:00	55.4	55.4	55.4	92	53.1	0	2	90	0.00	30.325 
02:05	55.4	55.4	55.4	92	53.1	0	1	90	0.00	30.325 
02:10	55.3	55.3	55.3	92	53.0	0	1	90	0.00	30.325 
02:15	55.1	55.1	55.1	92	52.8	0	1	90	0.00	30.326 
02:20	55.1	55.1	55.1	92	52.8	0	2	90	0.00	30.325 
02:25	55.0	55.0	55.0	92	52.7	0	2	90	0.00	30.325 
02:30	55.0	55.0	55.0	92	52.7	0	2	90	0.00	30.325 
02:35	54.8	54.8	54.8	92	52.5	0	1	90	0.00	30.324 
02:40	54.7	54.7	54.7	93	52.7	0	1	90	0.00	30.323 
02:45	54.7	54.7	54.7	93	52.7	0	1	90	0.00	30.323 
02:50	54.5	54.5	54.5	93	52.5	0	1	90	0.00	30.324 
02:55	54.5	54.5	54.5	93	52.5	0	1	90	0.00	30.324 
03:00	54.4	54.4	54.4	93	52.4	0	1	90	0.00	30.324 
03:05	54.2	54.2	54.2	93	52.2	0	1	90	0.00	30.324 
03:10	54.1	54.1	54.1	93	52.1	0	0	---	0.00	30.324 
03:15	53.9	53.9	53.9	93	51.9	0	0	---	0.00	30.323 
03:20	53.8	53.8	53.8	93	51.8	0	1	90	0.00	30.323 
03:25	53.8	53.8	53.8	94	52.1	0	0	---	0.00	30.323 
03:30	53.6	53.6	53.6	94	51.9	0	1	90	0.00	30.323 
03:35	53.5	53.5	53.5	94	51.8	0	1	90	0.00	30.324 
03:40	53.5	53.5	53.5	94	51.8	0	1	90	0.00	30.324 
03:45	53.5	53.5	53.5	94	51.8	0	1	90	0.00	30.324 
03:50	53.5	53.5	53.5	94	51.8	0	2	90	0.00	30.325 
03:55	53.5	53.5	53.5	94	51.8	0	2	90	0.00	30.326 
04:00	53.5	53.5	53.5	94	51.8	0	2	90	0.00	30.327 
04:05	53.3	53.3	53.3	94	51.6	0	1	90	0.00	30.327 
04:10	53.3	53.3	53.3	94	51.6	0	2	90	0.00	30.326 
04:15	53.3	53.3	53.3	95	51.9	0	1	90	0.00	30.326 
04:20	53.2	53.2	53.2	95	51.8	0	1	90	0.00	30.327 
04:25	53.2	53.2	53.2	95	51.8	0	1	90	0.00	30.328 
04:30	53.1	53.1	53.1	95	51.7	0	0	---	0.00	30.327 
04:35	52.9	52.9	52.9	95	51.5	0	0	---	0.00	30.327 
04:40	52.9	52.9	52.9	95	51.5	0	1	90	0.00	30.327 
04:45	52.8	52.8	52.8	95	51.4	0	0	---	0.00	30.330 
04:50	52.6	52.6	52.6	95	51.2	0	0	---	0.00	30.330 
04:55	52.6	52.6	52.6	95	51.2	0	0	---	0.00	30.331 
05:00	52.5	52.5	52.5	95	51.1	0	0	---	0.00	30.332 
05:05	52.3	52.3	52.3	95	50.9	0	0	---	0.00	30.337 
05:10	52.2	52.2	52.2	95	50.8	0	0	---	0.00	30.341 
05:15	52.0	52.0	52.0	95	50.6	0	0	---	0.00	30.342 
05:20	51.9	51.9	51.9	95	50.5	0	0	---	0.00	30.342 
05:25	51.7	51.7	51.7	95	50.3	0	0	---	0.00	30.342 
05:30	51.7	51.7	51.7	95	50.3	0	0	---	0.00	30.342 
05:35	51.7	51.7	51.7	95	50.3	0	0	---	0.00	30.343 
05:40	51.7	51.7	51.7	95	50.3	0	1	90	0.00	30.344 
05:45	51.7	51.7	51.7	95	50.3	0	0	---	0.00	30.346 
05:50	51.6	51.6	51.6	95	50.2	0	0	---	0.00	30.347 
05:55	51.6	51.6	51.6	95	50.2	0	0	---	0.00	30.347 
06:00	51.6	51.6	51.6	95	50.2	0	0	---	0.00	30.348 
06:05	51.7	51.7	51.7	95	50.3	0	0	---	0.00	30.354 
06:10	51.7	51.7	51.7	95	50.3	0	1	90	0.00	30.353 
06:15	51.9	51.9	51.9	95	50.5	0	1	90	0.00	30.351 
06:20	51.9	51.9	51.9	95	50.5	0	0	---	0.00	30.349 
06:25	51.9	51.9	51.9	96	50.8	0	1	90	0.00	30.350 
06:30	51.9	51.9	51.9	95	50.5	0	1	90	0.00	30.350 
06:35	51.9	51.9	51.9	95	50.5	0	1	90	0.00	30.351 
06:40	51.7	51.7	51.7	96	50.6	0	1	90	0.00	30.352 
06:45	51.7	51.7	51.7	96	50.6	0	1	90	0.00	30.354 
06:50	51.7	51.7	51.7	95	50.3	0	1	90	0.00	30.355 
06:55	51.7	51.7	51.7	96	50.6	0	1	90	0.00	30.354 
07:00	51.9	51.9	51.9	96	50.8	0	1	90	0.00	30.356 
07:05	52.0	52.0	52.0	96	50.9	0	1	90	0.00	30.361 
07:10	52.3	52.3	52.3	96	51.2	0	1	90	0.00	30.363 
07:15	52.6	52.6	52.6	96	51.5	0	1	90	0.00	30.365 
07:20	53.1	53.1	53.1	96	52.0	0	1	90	0.00	30.365 
07:25	53.2	53.2	53.2	96	52.1	0	0	---	0.00	30.366 
07:30	53.3	53.3	53.3	96	52.2	0	1	90	0.00	30.367 
07:35	53.5	53.5	53.5	96	52.4	0	1	90	0.00	30.367 
07:40	53.8	53.8	53.8	95	52.4	0	2	90	0.00	30.368 
07:45	54.1	54.1	54.1	95	52.7	0	1	90	0.00	30.369 
07:50	54.4	54.4	54.4	95	53.0	0	0	---	0.00	30.369 
07:55	54.7	54.7	54.7	95	53.3	0	3	90	0.00	30.372 
08:00	54.8	54.8	54.8	95	53.4	0	1	90	0.00	30.371 
08:05	55.1	55.1	55.1	94	53.4	1	2	90	0.00	30.373 
08:10	55.4	55.4	55.4	93	53.4	1	2	90	0.00	30.372 
08:15	55.7	55.7	55.7	92	53.4	1	3	90	0.00	30.371 
08:20	56.0	56.0	56.0	92	53.7	1	4	90	0.00	30.371 
08:25	56.3	56.3	56.3	91	53.7	1	3	90	0.00	30.373 
08:30	56.6	56.6	56.6	90	53.7	1	4	112	0.00	30.371 
08:35	57.0	57.0	57.0	90	54.1	1	3	112	0.00	30.369 
08:40	57.5	57.5	57.5	89	54.3	1	3	90	0.00	30.369 
08:45	57.8	57.8	57.8	88	54.3	1	4	112	0.00	30.371 
08:50	58.3	58.3	58.3	88	54.8	0	2	112	0.00	30.372 
08:55	58.9	58.9	58.9	86	54.7	0	3	112	0.00	30.369 
09:00	59.3	59.3	59.3	85	54.8	1	3	112	0.00	30.372 
09:05	59.9	59.9	59.9	85	55.4	0	2	112	0.00	30.375 
09:10	60.4	60.4	60.4	83	55.2	1	2	112	0.00	30.374 
09:15	61.2	61.2	61.2	82	55.7	0	1	112	0.00	30.373 
09:20	62.1	62.1	62.1	80	55.9	0	2	112	0.00	30.373 
09:25	62.9	62.9	62.9	79	56.3	0	2	112	0.00	30.374 
09:30	63.7	63.7	63.7	76	56.0	1	2	112	0.00	30.373 
09:35	64.2	64.2	64.2	75	56.1	1	4	90	0.00	30.372 
09:40	65.0	65.0	65.0	76	57.2	0	3	90	0.00	30.370 
09:45	65.8	65.8	65.8	71	56.1	1	3	90	0.00	30.367 
09:50	66.3	66.3	66.3	71	56.6	1	4	90	0.00	30.365 
09:55	66.6	66.6	66.6	71	56.9	1	4	90	0.00	30.362 
10:00	66.9	66.9	66.9	70	56.8	1	3	90	0.00	30.359 
10:05	67.3	67.3	67.3	70	57.2	1	3	90	0.00	30.360 
10:10	67.8	67.8	67.8	71	58.0	1	3	90	0.00	30.358 
10:15	68.4	68.4	68.4	68	57.4	1	5	90	0.00	30.358 
10:20	68.8	68.8	68.8	69	58.2	1	3	90	0.00	30.359 
10:25	68.9	68.9	68.9	68	57.9	1	4	90	0.00	30.358 
10:30	69.4	69.4	69.4	67	58.0	1	4	112	0.00	30.358 
10:35	69.9	69.9	69.9	66	58.0	1	4	90	0.00	30.357 
10:40	70.1	70.1	70.1	66	58.2	2	4	90	0.00	30.356 
10:45	70.4	70.4	70.4	66	58.5	1	3	90	0.00	30.355 
10:50	71.3	71.3	71.3	66	59.3	0	2	90	0.00	30.354 
10:55	71.6	71.6	71.6	64	58.8	2	5	90	0.00	30.351 
11:00	71.8	71.8	71.8	65	59.4	1	6	90	0.00	30.349 
11:05	72.3	72.3	72.3	63	59.0	1	4	90	0.00	30.349 
11:10	72.5	72.5	72.5	64	59.6	1	4	90	0.00	30.344 
11:15	72.8	72.8	72.8	62	59.0	1	4	90	0.00	30.342 
11:20	73.3	73.3	73.3	62	59.5	1	2	112	0.00	30.341 
11:25	74.0	74.0	74.0	62	60.1	1	4	112	0.00	30.339 
11:30	74.2	74.2	74.2	60	59.4	1	4	90	0.00	30.338 
11:35	74.6	74.6	74.6	60	59.8	1	3	90	0.00	30.337 
11:40	74.9	74.9	74.9	58	59.1	2	5	90	0.00	30.335 
11:45	74.9	74.9	74.9	60	60.1	1	4	90	0.00	30.333 
11:50	74.9	74.9	74.9	57	58.6	2	5	90	0.00	30.331 
11:55	75.1	75.1	77.6	55	57.8	2	4	90	0.00	30.332 
12:00	75.4	75.4	77.7	55	58.1	1	4	112	0.00	30.330 
12:05	75.8	75.8	78.0	54	57.9	1	3	112	0.00	30.330 
12:10	76.1	76.1	78.1	53	57.7	1	3	112	0.00	30.328 
12:15	76.3	76.3	78.2	50	56.3	2	7	112	0.00	30.325 
12:20	76.5	76.5	78.3	51	57.0	2	5	90	0.00	30.324 
12:25	76.5	76.5	78.3	48	55.3	2	6	90	0.00	30.322 
12:30	76.8	76.8	78.5	52	57.8	1	4	90	0.00	30.320 
12:35	77.4	77.4	78.8	48	56.1	2	6	90	0.00	30.319 
12:40	77.7	77.7	78.9	47	55.8	1	4	90	0.00	30.312 
12:45	77.9	77.9	79.0	47	56.0	1	3	90	0.00	30.312 
12:50	78.1	78.1	79.3	49	57.4	1	4	90	0.00	30.310 
12:55	78.3	78.3	79.2	46	55.8	1	4	112	0.00	30.308 
13:00	78.3	78.3	79.1	44	54.6	2	6	90	0.00	30.306 
13:05	78.1	78.1	79.0	45	55.0	1	4	90	0.00	30.308 
13:10	78.5	78.5	79.0	40	52.1	1	3	112	0.00	30.306 
13:15	78.8	78.8	79.2	41	53.1	1	4	68	0.00	30.297 
13:20	79.0	79.0	79.4	41	53.3	2	7	90	0.00	30.293 
13:25	79.4	79.4	79.5	39	52.3	1	4	112	0.00	30.291 
13:30	79.8	79.8	79.8	40	53.3	1	3	112	0.00	30.289 
13:35	79.9	79.9	79.9	41	54.1	1	4	112	0.00	30.289 
13:40	80.3	80.3	79.8	36	50.9	1	3	112	0.00	30.285 
13:45	80.3	80.3	79.8	36	50.9	2	5	112	0.00	30.279 
13:50	80.5	80.5	79.9	36	51.1	1	2	112	0.00	30.276 
13:55	80.7	80.7	80.0	35	50.5	1	3	112	0.00	30.274 
14:00	80.9	80.9	80.0	33	49.1	2	4	90	0.00	30.273 
14:05	81.1	81.1	80.1	33	49.2	1	4	90	0.00	30.273 
14:10	80.9	80.9	79.9	32	48.2	4	7	90	0.00	30.274 
14:15	80.9	80.9	80.1	34	49.9	2	6	90	0.00	30.273 
14:20	81.1	81.1	80.4	36	51.6	2	7	90	0.00	30.273 
14:25	81.1	81.1	80.3	35	50.8	2	6	68	0.00	30.272 
14:30	81.4	81.4	80.5	35	51.1	1	3	68	0.00	30.269 
14:35	81.6	81.6	80.7	36	52.0	1	3	112	0.00	30.264 
14:40	81.6	81.6	80.5	34	50.5	2	6	90	0.00	30.261 
14:45	81.8	81.8	80.7	34	50.7	1	5	112	0.00	30.261 
14:50	81.6	81.6	80.5	34	50.5	3	5	112	0.00	30.261 
14:55	81.4	81.4	80.5	35	51.1	2	4	90	0.00	30.261 
15:00	81.4	81.4	80.3	33	49.5	2	9	90	0.00	30.260 
15:05	81.4	81.4	80.4	34	50.3	2	4	90	0.00	30.259 
15:10	81.6	81.6	80.5	34	50.5	1	3	90	0.00	30.257 
15:15	81.6	81.6	80.5	33	49.7	2	6	90	0.00	30.252 
15:20	81.6	81.6	80.4	32	48.9	3	5	90	0.00	30.251 
15:25	81.4	81.4	80.4	34	50.3	2	6	90	0.00	30.249 
15:30	81.4	81.4	80.3	33	49.5	1	2	68	0.00	30.245 
15:35	81.4	81.4	80.4	34	50.3	1	4	68	0.00	30.245 
15:40	81.4	81.4	80.3	33	49.5	4	7	90	0.00	30.245 
15:45	81.4	81.4	80.4	34	50.3	2	6	112	0.00	30.243 
15:50	81.4	81.4	80.5	35	51.1	2	8	90	0.00	30.244 
15:55	81.4	81.4	80.4	34	50.3	3	6	90	0.00	30.244 
16:00	81.4	81.4	80.5	35	51.1	3	5	90	0.00	30.243 
16:05	81.4	81.4	80.7	37	52.6	1	5	90	0.00	30.243 
16:10	81.2	81.2	80.4	36	51.7	2	7	112	0.00	30.243 
16:15	81.2	81.2	80.4	36	51.7	2	7	112	0.00	30.241 
16:20	81.2	81.2	80.4	36	51.7	2	4	112	0.00	30.238 
16:25	81.2	81.2	80.4	36	51.7	2	4	112	0.00	30.237 
16:30	81.2	81.2	80.5	37	52.4	1	4	90	0.00	30.237 
16:35	81.2	81.2	80.3	35	50.9	2	4	90	0.00	30.235 
16:40	81.2	81.2	80.4	36	51.7	1	4	90	0.00	30.232 
16:45	81.1	81.1	80.3	35	50.8	1	4	90	0.00	30.232 
16:50	81.1	81.1	80.4	36	51.6	0	2	90	0.00	30.230 
16:55	81.1	81.1	80.4	36	51.6	1	3	90	0.00	30.230 
17:00	81.1	81.1	80.4	36	51.6	1	3	112	0.00	30.230 
17:05	81.1	81.1	80.3	35	50.8	1	2	112	0.00	30.230 
17:10	80.9	80.9	80.5	39	53.6	0	2	112	0.00	30.230 
17:15	80.9	80.9	80.1	35	50.7	1	4	90	0.00	30.230 
17:20	80.7	80.7	80.2	37	52.0	1	6	90	0.00	30.230 
17:25	80.5	80.5	80.2	39	53.2	1	5	68	0.00	30.229 
17:30	80.1	80.1	79.8	38	52.2	2	5	90	0.00	30.230 
17:35	79.8	79.8	79.6	38	51.9	1	4	90	0.00	30.230 
17:40	79.4	79.4	79.5	39	52.3	2	4	90	0.00	30.230 
17:45	79.2	79.2	79.3	39	52.1	1	4	90	0.00	30.231 
17:50	78.8	78.8	79.1	39	51.7	1	3	90	0.00	30.231 
17:55	78.5	78.5	78.9	39	51.5	1	4	90	0.00	30.232 
18:00	78.1	78.1	78.8	40	51.8	1	3	90	0.00	30.232 
18:05	77.7	77.7	78.6	41	52.1	1	4	90	0.00	30.232 
18:10	77.4	77.4	78.5	41	51.8	1	2	90	0.00	30.232 
18:15	77.0	77.0	78.3	42	52.1	0	2	90	0.00	30.234 
18:20	76.5	76.5	78.1	42	51.7	0	2	90	0.00	30.235 
18:25	76.1	76.1	78.0	43	52.0	0	1	90	0.00	30.237 
18:30	75.6	75.6	77.8	44	52.1	0	0	---	0.00	30.239 
18:35	75.1	75.1	77.7	46	52.9	0	0	---	0.00	30.240 
18:40	74.4	74.4	74.4	47	52.8	0	0	---	0.00	30.240 
18:45	73.7	73.7	73.7	48	52.8	0	0	---	0.00	30.239 
18:50	73.0	73.0	73.0	49	52.7	0	1	90	0.00	30.241 
18:55	72.5	72.5	72.5	49	52.2	0	1	90	0.00	30.241 
19:00	72.0	72.0	72.0	50	52.3	0	1	90	0.00	30.239 
19:05	71.6	71.6	71.6	50	52.0	0	1	90	0.00	30.237 
19:10	71.5	71.5	71.5	50	51.9	0	2	90	0.00	30.238 
19:15	71.3	71.3	71.3	50	51.7	0	1	90	0.00	30.240 
19:20	71.1	71.1	71.1	50	51.5	0	1	90	0.00	30.244 
19:25	70.9	70.9	70.9	51	51.9	0	3	90	0.00	30.246 
19:30	70.9	70.9	70.9	51	51.9	0	1	90	0.00	30.247 
19:35	70.8	70.8	70.8	50	51.2	0	2	90	0.00	30.248 
19:40	70.8	70.8	70.8	50	51.2	0	2	90	0.00	30.250 
19:45	70.6	70.6	70.6	50	51.0	0	3	90	0.00	30.250 
19:50	70.4	70.4	70.4	51	51.4	0	1	90	0.00	30.252 
19:55	70.3	70.3	70.3	51	51.3	0	1	90	0.00	30.253 
20:00	69.9	69.9	69.9	51	50.9	0	2	90	0.00	30.255 
20:05	69.6	69.6	69.6	53	51.7	0	2	90	0.00	30.254 
20:10	69.3	69.3	69.3	53	51.4	0	2	90	0.00	30.253 
20:15	68.9	68.9	68.9	53	51.1	0	2	90	0.00	30.256 
20:20	68.6	68.6	68.6	53	50.8	0	2	90	0.00	30.258 
20:25	68.4	68.4	68.4	54	51.1	0	2	90	0.00	30.262 
20:30	67.9	67.9	67.9	55	51.1	0	2	90	0.00	30.263 
20:35	67.6	67.6	67.6	56	51.3	0	2	90	0.00	30.263 
20:40	67.3	67.3	67.3	57	51.5	0	1	90	0.00	30.263 
20:45	66.8	66.8	66.8	59	52.0	0	1	90	0.00	30.262 
20:50	66.4	66.4	66.4	60	52.1	0	1	90	0.00	30.263 
20:55	66.1	66.1	66.1	62	52.7	0	3	90	0.00	30.265 
21:00	66.0	66.0	66.0	63	53.0	0	2	90	0.00	30.263 
21:05	66.0	66.0	66.0	64	53.5	1	3	90	0.00	30.255 
21:10	66.1	66.1	66.1	65	54.0	1	4	90	0.00	30.252 
21:15	66.1	66.1	66.1	66	54.4	1	4	90	0.00	30.254 
21:20	66.1	66.1	66.1	66	54.4	1	3	90	0.00	30.254 
21:25	66.1	66.1	66.1	67	54.8	1	2	90	0.00	30.250 
21:30	66.0	66.0	66.0	67	54.7	1	3	112	0.00	30.247 
21:35	66.0	66.0	66.0	68	55.1	1	5	112	0.00	30.248 
21:40	65.8	65.8	65.8	68	54.9	1	4	90	0.00	30.246 
21:45	65.6	65.6	65.6	69	55.1	1	3	68	0.00	30.245 
21:50	65.6	65.6	65.6	69	55.1	1	3	90	0.00	30.246 
21:55	65.3	65.3	65.3	69	54.9	0	1	90	0.00	30.246 
22:00	65.2	65.2	65.2	70	55.2	0	1	90	0.00	30.249 
22:05	64.8	64.8	64.8	71	55.2	0	2	90	0.00	30.248 
22:10	64.5	64.5	64.5	72	55.3	0	2	90	0.00	30.251 
22:15	64.3	64.3	64.3	73	55.5	0	3	90	0.00	30.253 
22:20	64.0	64.0	64.0	73	55.2	0	2	90	0.00	30.255 
22:25	63.7	63.7	63.7	74	55.3	0	1	90	0.00	30.256 
22:30	63.4	63.4	63.4	75	55.3	0	1	90	0.00	30.258 
22:35	63.1	63.1	63.1	76	55.4	0	1	90	0.00	30.260 
22:40	62.9	62.9	62.9	77	55.6	0	1	90	0.00	30.261 
22:45	62.6	62.6	62.6	77	55.3	0	1	90	0.00	30.264 
22:50	62.3	62.3	62.3	78	55.3	0	1	90	0.00	30.264 
22:55	62.0	62.0	62.0	79	55.4	0	1	90	0.00	30.263 
23:00	61.8	61.8	61.8	80	55.6	0	1	90	0.00	30.266 
23:05	61.5	61.5	61.5	81	55.6	0	1	90	0.00	30.266 
23:10	61.5	61.5	61.5	81	55.6	0	1	90	0.00	30.267 
23:15	61.3	61.3	61.3	81	55.4	0	1	90	0.00	30.270 
23:20	61.2	61.2	61.2	81	55.3	0	1	90	0.00	30.272 
23:25	61.0	61.0	61.0	81	55.1	0	0	---	0.00	30.273 
23:30	60.9	60.9	60.9	81	55.0	0	1	90	0.00	30.274 
23:35	60.5	60.5	60.5	82	55.0	0	0	---	0.00	30.274 
23:40	60.1	60.1	60.1	83	54.9	0	0	---	0.00	30.276 
23:45	59.8	59.8	59.8	84	55.0	0	0	---	0.00	30.278 
23:50	59.5	59.5	59.5	84	54.7	0	0	---	0.00	30.279 
23:55	59.2	59.2	59.2	85	54.7	0	0	---	0.00	30.278 

CoCoRaHS
IN-AL-39
A2 Web Hosting
Creative Commons License
GoDaddy
Look for:

loaded 2017-12-12 01:59:52 • last modified 2010-11-18 10:43:29
Privacy PolicyDisclaimer
• wx.awcolley.com is powered by PmWiki v.2002016 •
• all content (unless otherwise noted) © 2017 A W Colley